sensor_id;sensor_type;location;lat;lon;timestamp;P1;durP1;ratioP1;P2;durP2;ratioP2
32625;SDS011;19038;50.922;11.880;2022-10-30T00:04:39;14.17;;;10.40;;
32625;SDS011;19038;50.922;11.880;2022-10-30T00:09:39;14.10;;;11.83;;
32625;SDS011;19038;50.922;11.880;2022-10-30T00:14:39;14.67;;;10.20;;
32625;SDS011;19038;50.922;11.880;2022-10-30T00:19:39;12.03;;;10.70;;
32625;SDS011;19038;50.922;11.880;2022-10-30T00:24:39;14.07;;;9.13;;
32625;SDS011;19038;50.922;11.880;2022-10-30T00:29:39;16.47;;;12.40;;
32625;SDS011;19038;50.922;11.880;2022-10-30T00:34:39;18.50;;;13.43;;
32625;SDS011;19038;50.922;11.880;2022-10-30T00:39:39;16.07;;;12.50;;
32625;SDS011;19038;50.922;11.880;2022-10-30T00:49:41;15.87;;;13.30;;
32625;SDS011;19038;50.922;11.880;2022-10-30T00:54:39;17.07;;;11.70;;
32625;SDS011;19038;50.922;11.880;2022-10-30T00:59:39;16.03;;;10.93;;
32625;SDS011;19038;50.922;11.880;2022-10-30T01:04:39;14.17;;;10.03;;
32625;SDS011;19038;50.922;11.880;2022-10-30T01:09:39;15.60;;;8.90;;
32625;SDS011;19038;50.922;11.880;2022-10-30T01:14:40;15.10;;;9.30;;
32625;SDS011;19038;50.922;11.880;2022-10-30T01:19:41;11.30;;;10.10;;
32625;SDS011;19038;50.922;11.880;2022-10-30T01:29:44;9.93;;;8.37;;
32625;SDS011;19038;50.922;11.880;2022-10-30T01:39:39;13.80;;;9.60;;
32625;SDS011;19038;50.922;11.880;2022-10-30T01:44:39;11.50;;;9.40;;
32625;SDS011;19038;50.922;11.880;2022-10-30T01:54:43;13.17;;;8.70;;
32625;SDS011;19038;50.922;11.880;2022-10-30T02:04:39;9.47;;;7.80;;
32625;SDS011;19038;50.922;11.880;2022-10-30T02:09:39;9.60;;;7.30;;
32625;SDS011;19038;50.922;11.880;2022-10-30T02:14:40;8.50;;;6.93;;
32625;SDS011;19038;50.922;11.880;2022-10-30T02:19:39;9.17;;;7.40;;
32625;SDS011;19038;50.922;11.880;2022-10-30T02:24:39;9.03;;;6.23;;
32625;SDS011;19038;50.922;11.880;2022-10-30T02:29:39;14.00;;;7.03;;
32625;SDS011;19038;50.922;11.880;2022-10-30T02:34:39;9.00;;;6.23;;
32625;SDS011;19038;50.922;11.880;2022-10-30T02:39:39;8.60;;;7.20;;
32625;SDS011;19038;50.922;11.880;2022-10-30T02:44:39;8.70;;;7.00;;
32625;SDS011;19038;50.922;11.880;2022-10-30T02:49:39;9.30;;;6.77;;
32625;SDS011;19038;50.922;11.880;2022-10-30T02:54:39;8.30;;;7.50;;
32625;SDS011;19038;50.922;11.880;2022-10-30T02:59:39;9.63;;;6.87;;
32625;SDS011;19038;50.922;11.880;2022-10-30T03:04:39;10.30;;;7.43;;
32625;SDS011;19038;50.922;11.880;2022-10-30T03:09:39;8.97;;;6.67;;
32625;SDS011;19038;50.922;11.880;2022-10-30T03:14:39;11.10;;;7.33;;
32625;SDS011;19038;50.922;11.880;2022-10-30T03:19:39;9.13;;;7.10;;
32625;SDS011;19038;50.922;11.880;2022-10-30T03:24:39;10.60;;;7.27;;
32625;SDS011;19038;50.922;11.880;2022-10-30T03:29:39;9.57;;;7.17;;
32625;SDS011;19038;50.922;11.880;2022-10-30T03:34:39;10.27;;;6.90;;
32625;SDS011;19038;50.922;11.880;2022-10-30T03:39:39;8.53;;;6.53;;
32625;SDS011;19038;50.922;11.880;2022-10-30T03:44:39;7.20;;;6.50;;
32625;SDS011;19038;50.922;11.880;2022-10-30T03:49:39;8.93;;;7.60;;
32625;SDS011;19038;50.922;11.880;2022-10-30T03:54:39;9.10;;;7.23;;
32625;SDS011;19038;50.922;11.880;2022-10-30T03:59:39;7.93;;;6.30;;
32625;SDS011;19038;50.922;11.880;2022-10-30T04:04:39;9.10;;;7.07;;
32625;SDS011;19038;50.922;11.880;2022-10-30T04:09:39;10.40;;;7.50;;
32625;SDS011;19038;50.922;11.880;2022-10-30T04:14:39;8.27;;;6.87;;
32625;SDS011;19038;50.922;11.880;2022-10-30T04:19:39;7.03;;;6.40;;
32625;SDS011;19038;50.922;11.880;2022-10-30T04:24:39;7.97;;;6.80;;
32625;SDS011;19038;50.922;11.880;2022-10-30T04:29:39;8.70;;;6.40;;
32625;SDS011;19038;50.922;11.880;2022-10-30T04:34:39;12.10;;;6.30;;
32625;SDS011;19038;50.922;11.880;2022-10-30T04:39:39;9.50;;;7.77;;
32625;SDS011;19038;50.922;11.880;2022-10-30T04:44:39;9.27;;;8.37;;
32625;SDS011;19038;50.922;11.880;2022-10-30T04:49:39;13.70;;;10.40;;
32625;SDS011;19038;50.922;11.880;2022-10-30T04:54:39;10.23;;;9.23;;
32625;SDS011;19038;50.922;11.880;2022-10-30T04:59:39;9.80;;;8.77;;
32625;SDS011;19038;50.922;11.880;2022-10-30T05:04:39;10.03;;;8.80;;
32625;SDS011;19038;50.922;11.880;2022-10-30T05:09:39;12.70;;;8.27;;
32625;SDS011;19038;50.922;11.880;2022-10-30T05:14:39;10.70;;;8.40;;
32625;SDS011;19038;50.922;11.880;2022-10-30T05:19:39;8.23;;;7.40;;
32625;SDS011;19038;50.922;11.880;2022-10-30T05:24:39;8.40;;;7.60;;
32625;SDS011;19038;50.922;11.880;2022-10-30T05:29:39;13.77;;;7.40;;
32625;SDS011;19038;50.922;11.880;2022-10-30T05:34:39;8.80;;;7.27;;
32625;SDS011;19038;50.922;11.880;2022-10-30T05:39:39;9.60;;;7.60;;
32625;SDS011;19038;50.922;11.880;2022-10-30T05:44:39;9.50;;;8.00;;
32625;SDS011;19038;50.922;11.880;2022-10-30T05:49:39;13.50;;;11.70;;
32625;SDS011;19038;50.922;11.880;2022-10-30T05:54:39;17.27;;;12.30;;
32625;SDS011;19038;50.922;11.880;2022-10-30T05:59:39;11.43;;;10.27;;
32625;SDS011;19038;50.922;11.880;2022-10-30T06:04:39;10.50;;;9.13;;
32625;SDS011;19038;50.922;11.880;2022-10-30T06:09:39;9.50;;;7.80;;
32625;SDS011;19038;50.922;11.880;2022-10-30T06:14:39;9.70;;;7.57;;
32625;SDS011;19038;50.922;11.880;2022-10-30T06:19:39;10.00;;;7.70;;
32625;SDS011;19038;50.922;11.880;2022-10-30T06:24:39;9.00;;;8.07;;
32625;SDS011;19038;50.922;11.880;2022-10-30T06:29:39;8.63;;;7.43;;
32625;SDS011;19038;50.922;11.880;2022-10-30T06:34:39;8.27;;;7.13;;
32625;SDS011;19038;50.922;11.880;2022-10-30T06:39:39;12.30;;;9.03;;
32625;SDS011;19038;50.922;11.880;2022-10-30T06:44:39;11.13;;;9.10;;
32625;SDS011;19038;50.922;11.880;2022-10-30T06:49:39;9.67;;;8.77;;
32625;SDS011;19038;50.922;11.880;2022-10-30T06:54:39;11.90;;;10.70;;
32625;SDS011;19038;50.922;11.880;2022-10-30T06:59:39;11.97;;;9.40;;
32625;SDS011;19038;50.922;11.880;2022-10-30T07:04:39;12.73;;;9.43;;
32625;SDS011;19038;50.922;11.880;2022-10-30T07:09:39;11.77;;;10.57;;
32625;SDS011;19038;50.922;11.880;2022-10-30T07:14:39;14.07;;;10.27;;
32625;SDS011;19038;50.922;11.880;2022-10-30T07:19:39;12.10;;;10.90;;
32625;SDS011;19038;50.922;11.880;2022-10-30T07:24:39;11.60;;;9.97;;
32625;SDS011;19038;50.922;11.880;2022-10-30T07:29:39;11.33;;;10.10;;
32625;SDS011;19038;50.922;11.880;2022-10-30T07:34:39;11.97;;;10.77;;
32625;SDS011;19038;50.922;11.880;2022-10-30T07:39:39;12.87;;;10.70;;
32625;SDS011;19038;50.922;11.880;2022-10-30T07:44:39;11.53;;;10.30;;
32625;SDS011;19038;50.922;11.880;2022-10-30T07:49:39;14.17;;;10.83;;
32625;SDS011;19038;50.922;11.880;2022-10-30T07:54:39;12.27;;;11.00;;
32625;SDS011;19038;50.922;11.880;2022-10-30T07:59:39;13.07;;;11.23;;
32625;SDS011;19038;50.922;11.880;2022-10-30T08:04:39;12.07;;;10.97;;
32625;SDS011;19038;50.922;11.880;2022-10-30T08:09:39;16.30;;;12.60;;
32625;SDS011;19038;50.922;11.880;2022-10-30T08:14:39;12.43;;;10.70;;
32625;SDS011;19038;50.922;11.880;2022-10-30T08:19:39;14.70;;;10.23;;
32625;SDS011;19038;50.922;11.880;2022-10-30T08:24:39;14.70;;;12.83;;
32625;SDS011;19038;50.922;11.880;2022-10-30T08:29:39;17.40;;;13.50;;
32625;SDS011;19038;50.922;11.880;2022-10-30T08:34:39;57.00;;;39.83;;
32625;SDS011;19038;50.922;11.880;2022-10-30T08:39:39;22.70;;;16.73;;
32625;SDS011;19038;50.922;11.880;2022-10-30T08:44:39;32.70;;;20.70;;
32625;SDS011;19038;50.922;11.880;2022-10-30T08:49:39;29.47;;;20.33;;
32625;SDS011;19038;50.922;11.880;2022-10-30T08:54:39;55.70;;;37.67;;
32625;SDS011;19038;50.922;11.880;2022-10-30T08:59:39;34.93;;;27.00;;
32625;SDS011;19038;50.922;11.880;2022-10-30T09:04:39;43.83;;;32.37;;
32625;SDS011;19038;50.922;11.880;2022-10-30T09:09:39;43.87;;;30.27;;
32625;SDS011;19038;50.922;11.880;2022-10-30T09:14:39;34.20;;;21.30;;
32625;SDS011;19038;50.922;11.880;2022-10-30T09:19:39;27.70;;;23.13;;
32625;SDS011;19038;50.922;11.880;2022-10-30T09:24:39;29.13;;;18.87;;
32625;SDS011;19038;50.922;11.880;2022-10-30T09:29:39;16.20;;;12.50;;
32625;SDS011;19038;50.922;11.880;2022-10-30T09:34:39;13.13;;;9.93;;
32625;SDS011;19038;50.922;11.880;2022-10-30T09:39:39;16.70;;;12.33;;
32625;SDS011;19038;50.922;11.880;2022-10-30T09:44:44;27.80;;;19.07;;
32625;SDS011;19038;50.922;11.880;2022-10-30T09:58:18;9.53;;;6.50;;
32625;SDS011;19038;50.922;11.880;2022-10-30T10:08:17;9.13;;;5.10;;
32625;SDS011;19038;50.922;11.880;2022-10-30T10:18:16;8.37;;;5.27;;
32625;SDS011;19038;50.922;11.880;2022-10-30T10:23:16;9.30;;;5.33;;
32625;SDS011;19038;50.922;11.880;2022-10-30T10:28:22;8.73;;;4.60;;
32625;SDS011;19038;50.922;11.880;2022-10-30T10:38:19;7.90;;;5.60;;
32625;SDS011;19038;50.922;11.880;2022-10-30T10:43:18;10.60;;;5.87;;
32625;SDS011;19038;50.922;11.880;2022-10-30T10:48:22;10.17;;;5.40;;
32625;SDS011;19038;50.922;11.880;2022-10-30T10:53:19;6.63;;;5.30;;
32625;SDS011;19038;50.922;11.880;2022-10-30T10:58:20;7.30;;;5.03;;
32625;SDS011;19038;50.922;11.880;2022-10-30T11:03:17;6.03;;;5.17;;
32625;SDS011;19038;50.922;11.880;2022-10-30T11:08:18;9.33;;;5.07;;
32625;SDS011;19038;50.922;11.880;2022-10-30T11:13:15;8.53;;;5.33;;
32625;SDS011;19038;50.922;11.880;2022-10-30T11:18:15;10.23;;;5.40;;
32625;SDS011;19038;50.922;11.880;2022-10-30T11:28:20;7.83;;;5.33;;
32625;SDS011;19038;50.922;11.880;2022-10-30T11:38:18;9.63;;;5.80;;
32625;SDS011;19038;50.922;11.880;2022-10-30T11:43:16;11.47;;;5.00;;
32625;SDS011;19038;50.922;11.880;2022-10-30T11:48:21;10.23;;;5.97;;
32625;SDS011;19038;50.922;11.880;2022-10-30T11:53:24;7.77;;;5.37;;
32625;SDS011;19038;50.922;11.880;2022-10-30T11:58:23;9.03;;;5.47;;
32625;SDS011;19038;50.922;11.880;2022-10-30T12:03:27;12.93;;;5.10;;
32625;SDS011;19038;50.922;11.880;2022-10-30T12:08:18;11.20;;;4.93;;
32625;SDS011;19038;50.922;11.880;2022-10-30T12:13:19;8.60;;;5.03;;
32625;SDS011;19038;50.922;11.880;2022-10-30T12:18:21;7.57;;;5.60;;
32625;SDS011;19038;50.922;11.880;2022-10-30T12:23:18;6.53;;;4.57;;
32625;SDS011;19038;50.922;11.880;2022-10-30T12:28:19;10.33;;;5.60;;
32625;SDS011;19038;50.922;11.880;2022-10-30T12:33:20;10.00;;;5.23;;
32625;SDS011;19038;50.922;11.880;2022-10-30T12:43:21;6.77;;;4.70;;
32625;SDS011;19038;50.922;11.880;2022-10-30T13:03:21;8.40;;;6.37;;
32625;SDS011;19038;50.922;11.880;2022-10-30T13:08:27;8.77;;;5.07;;
32625;SDS011;19038;50.922;11.880;2022-10-30T13:13:19;7.13;;;6.43;;
32625;SDS011;19038;50.922;11.880;2022-10-30T13:18:19;6.93;;;4.93;;
32625;SDS011;19038;50.922;11.880;2022-10-30T13:23:19;6.80;;;4.73;;
32625;SDS011;19038;50.922;11.880;2022-10-30T13:28:22;6.53;;;4.27;;
32625;SDS011;19038;50.922;11.880;2022-10-30T13:33:20;10.17;;;4.40;;
32625;SDS011;19038;50.922;11.880;2022-10-30T13:53:20;6.33;;;5.03;;
32625;SDS011;19038;50.922;11.880;2022-10-30T13:58:20;9.70;;;4.70;;
32625;SDS011;19038;50.922;11.880;2022-10-30T14:03:21;9.53;;;5.30;;
32625;SDS011;19038;50.922;11.880;2022-10-30T14:08:20;6.40;;;5.40;;
32625;SDS011;19038;50.922;11.880;2022-10-30T14:23:19;6.97;;;5.33;;
32625;SDS011;19038;50.922;11.880;2022-10-30T14:28:19;7.77;;;5.30;;
32625;SDS011;19038;50.922;11.880;2022-10-30T14:38:22;14.20;;;5.20;;
32625;SDS011;19038;50.922;11.880;2022-10-30T14:43:23;7.80;;;5.73;;
32625;SDS011;19038;50.922;11.880;2022-10-30T14:58:21;12.33;;;11.13;;
32625;SDS011;19038;50.922;11.880;2022-10-30T15:08:39;11.13;;;9.53;;
32625;SDS011;19038;50.922;11.880;2022-10-30T15:13:20;12.97;;;10.57;;
32625;SDS011;19038;50.922;11.880;2022-10-30T15:18:18;16.80;;;11.60;;
32625;SDS011;19038;50.922;11.880;2022-10-30T15:23:21;14.67;;;10.17;;
32625;SDS011;19038;50.922;11.880;2022-10-30T15:28:19;15.73;;;9.00;;
32625;SDS011;19038;50.922;11.880;2022-10-30T15:33:19;13.53;;;6.90;;
32625;SDS011;19038;50.922;11.880;2022-10-30T15:38:18;11.27;;;9.07;;
32625;SDS011;19038;50.922;11.880;2022-10-30T15:43:18;12.50;;;7.10;;
32625;SDS011;19038;50.922;11.880;2022-10-30T15:48:21;11.13;;;8.13;;
32625;SDS011;19038;50.922;11.880;2022-10-30T15:53:19;11.40;;;5.87;;
32625;SDS011;19038;50.922;11.880;2022-10-30T15:58:19;8.97;;;6.17;;
32625;SDS011;19038;50.922;11.880;2022-10-30T16:03:18;7.40;;;5.87;;
32625;SDS011;19038;50.922;11.880;2022-10-30T16:08:20;9.80;;;5.23;;
32625;SDS011;19038;50.922;11.880;2022-10-30T16:13:20;9.07;;;6.27;;
32625;SDS011;19038;50.922;11.880;2022-10-30T16:18:20;7.40;;;5.37;;
32625;SDS011;19038;50.922;11.880;2022-10-30T16:23:19;7.93;;;5.53;;
32625;SDS011;19038;50.922;11.880;2022-10-30T16:33:21;7.83;;;6.30;;
32625;SDS011;19038;50.922;11.880;2022-10-30T16:38:18;10.00;;;6.90;;
32625;SDS011;19038;50.922;11.880;2022-10-30T16:48:19;10.20;;;6.80;;
32625;SDS011;19038;50.922;11.880;2022-10-30T16:53:20;11.37;;;6.67;;
32625;SDS011;19038;50.922;11.880;2022-10-30T16:58:18;8.03;;;6.50;;
32625;SDS011;19038;50.922;11.880;2022-10-30T17:03:19;8.10;;;7.27;;
32625;SDS011;19038;50.922;11.880;2022-10-30T17:18:18;10.73;;;9.30;;
32625;SDS011;19038;50.922;11.880;2022-10-30T17:23:18;10.73;;;9.63;;
32625;SDS011;19038;50.922;11.880;2022-10-30T17:38:18;14.03;;;11.40;;
32625;SDS011;19038;50.922;11.880;2022-10-30T17:43:18;14.83;;;13.27;;
32625;SDS011;19038;50.922;11.880;2022-10-30T17:48:19;20.20;;;14.60;;
32625;SDS011;19038;50.922;11.880;2022-10-30T17:53:20;28.57;;;23.07;;
32625;SDS011;19038;50.922;11.880;2022-10-30T17:58:18;38.13;;;25.43;;
32625;SDS011;19038;50.922;11.880;2022-10-30T18:03:18;41.17;;;29.90;;
32625;SDS011;19038;50.922;11.880;2022-10-30T18:08:18;35.60;;;27.63;;
32625;SDS011;19038;50.922;11.880;2022-10-30T18:13:18;45.43;;;33.10;;
32625;SDS011;19038;50.922;11.880;2022-10-30T18:18:18;56.40;;;39.47;;
32625;SDS011;19038;50.922;11.880;2022-10-30T18:23:19;54.23;;;40.27;;
32625;SDS011;19038;50.922;11.880;2022-10-30T18:28:18;56.77;;;44.77;;
32625;SDS011;19038;50.922;11.880;2022-10-30T18:33:18;56.37;;;43.63;;
32625;SDS011;19038;50.922;11.880;2022-10-30T18:38:19;50.70;;;39.80;;
32625;SDS011;19038;50.922;11.880;2022-10-30T18:43:18;50.17;;;39.60;;
32625;SDS011;19038;50.922;11.880;2022-10-30T18:48:18;51.33;;;38.20;;
32625;SDS011;19038;50.922;11.880;2022-10-30T18:53:18;44.50;;;38.20;;
32625;SDS011;19038;50.922;11.880;2022-10-30T18:58:18;41.47;;;36.60;;
32625;SDS011;19038;50.922;11.880;2022-10-30T19:03:18;38.73;;;34.50;;
32625;SDS011;19038;50.922;11.880;2022-10-30T19:08:18;38.77;;;34.67;;
32625;SDS011;19038;50.922;11.880;2022-10-30T19:13:19;38.33;;;34.27;;
32625;SDS011;19038;50.922;11.880;2022-10-30T19:18:18;37.57;;;33.73;;
32625;SDS011;19038;50.922;11.880;2022-10-30T19:23:20;34.97;;;31.67;;
32625;SDS011;19038;50.922;11.880;2022-10-30T19:28:19;30.57;;;27.50;;
32625;SDS011;19038;50.922;11.880;2022-10-30T19:33:19;28.43;;;25.53;;
32625;SDS011;19038;50.922;11.880;2022-10-30T19:38:18;28.37;;;25.37;;
32625;SDS011;19038;50.922;11.880;2022-10-30T19:43:19;26.20;;;23.40;;
32625;SDS011;19038;50.922;11.880;2022-10-30T19:48:19;27.73;;;23.83;;
32625;SDS011;19038;50.922;11.880;2022-10-30T19:53:18;26.63;;;23.97;;
32625;SDS011;19038;50.922;11.880;2022-10-30T19:58:18;24.03;;;21.53;;
32625;SDS011;19038;50.922;11.880;2022-10-30T20:03:18;22.13;;;19.83;;
32625;SDS011;19038;50.922;11.880;2022-10-30T20:08:19;21.53;;;18.53;;
32625;SDS011;19038;50.922;11.880;2022-10-30T20:13:19;19.60;;;17.60;;
32625;SDS011;19038;50.922;11.880;2022-10-30T20:18:20;18.20;;;16.00;;
32625;SDS011;19038;50.922;11.880;2022-10-30T20:23:19;15.90;;;14.30;;
32625;SDS011;19038;50.922;11.880;2022-10-30T20:28:21;18.53;;;13.40;;
32625;SDS011;19038;50.922;11.880;2022-10-30T20:33:19;16.33;;;13.30;;
32625;SDS011;19038;50.922;11.880;2022-10-30T20:38:21;14.03;;;11.83;;
32625;SDS011;19038;50.922;11.880;2022-10-30T20:43:19;15.77;;;11.83;;
32625;SDS011;19038;50.922;11.880;2022-10-30T20:48:19;14.40;;;12.90;;
32625;SDS011;19038;50.922;11.880;2022-10-30T20:53:18;20.73;;;17.50;;
32625;SDS011;19038;50.922;11.880;2022-10-30T20:58:19;24.30;;;21.40;;
32625;SDS011;19038;50.922;11.880;2022-10-30T21:03:18;19.97;;;17.93;;
32625;SDS011;19038;50.922;11.880;2022-10-30T21:08:19;22.50;;;20.10;;
32625;SDS011;19038;50.922;11.880;2022-10-30T21:13:19;22.27;;;19.93;;
32625;SDS011;19038;50.922;11.880;2022-10-30T21:18:18;22.00;;;19.87;;
32625;SDS011;19038;50.922;11.880;2022-10-30T21:23:18;21.03;;;18.97;;
32625;SDS011;19038;50.922;11.880;2022-10-30T21:28:18;25.83;;;19.63;;
32625;SDS011;19038;50.922;11.880;2022-10-30T21:33:18;23.17;;;20.40;;
32625;SDS011;19038;50.922;11.880;2022-10-30T21:38:19;25.03;;;22.50;;
32625;SDS011;19038;50.922;11.880;2022-10-30T21:43:19;25.50;;;23.07;;
32625;SDS011;19038;50.922;11.880;2022-10-30T21:48:18;23.83;;;21.83;;
32625;SDS011;19038;50.922;11.880;2022-10-30T21:53:19;23.67;;;21.47;;
32625;SDS011;19038;50.922;11.880;2022-10-30T21:58:19;23.87;;;21.37;;
32625;SDS011;19038;50.922;11.880;2022-10-30T22:03:19;25.50;;;22.93;;
32625;SDS011;19038;50.922;11.880;2022-10-30T22:08:19;35.50;;;28.77;;
32625;SDS011;19038;50.922;11.880;2022-10-30T22:13:18;34.07;;;27.03;;
32625;SDS011;19038;50.922;11.880;2022-10-30T22:18:19;24.80;;;22.20;;
32625;SDS011;19038;50.922;11.880;2022-10-30T22:23:19;22.67;;;20.27;;
32625;SDS011;19038;50.922;11.880;2022-10-30T22:28:18;24.80;;;20.10;;
32625;SDS011;19038;50.922;11.880;2022-10-30T22:33:19;20.20;;;18.00;;
32625;SDS011;19038;50.922;11.880;2022-10-30T22:38:19;18.90;;;17.10;;
32625;SDS011;19038;50.922;11.880;2022-10-30T22:43:19;21.73;;;17.87;;
32625;SDS011;19038;50.922;11.880;2022-10-30T22:48:19;21.83;;;18.50;;
32625;SDS011;19038;50.922;11.880;2022-10-30T22:53:18;21.87;;;17.93;;
32625;SDS011;19038;50.922;11.880;2022-10-30T22:58:19;18.30;;;16.40;;
32625;SDS011;19038;50.922;11.880;2022-10-30T23:03:19;20.47;;;15.40;;
32625;SDS011;19038;50.922;11.880;2022-10-30T23:08:19;17.93;;;16.03;;
32625;SDS011;19038;50.922;11.880;2022-10-30T23:13:19;15.90;;;14.20;;
32625;SDS011;19038;50.922;11.880;2022-10-30T23:18:19;15.00;;;13.40;;
32625;SDS011;19038;50.922;11.880;2022-10-30T23:23:19;16.33;;;12.57;;
32625;SDS011;19038;50.922;11.880;2022-10-30T23:28:19;13.80;;;12.53;;
32625;SDS011;19038;50.922;11.880;2022-10-30T23:33:19;12.07;;;10.93;;
32625;SDS011;19038;50.922;11.880;2022-10-30T23:38:19;11.93;;;10.83;;
32625;SDS011;19038;50.922;11.880;2022-10-30T23:43:19;12.77;;;11.53;;
32625;SDS011;19038;50.922;11.880;2022-10-30T23:48:19;10.23;;;9.13;;
32625;SDS011;19038;50.922;11.880;2022-10-30T23:53:19;9.93;;;8.90;;
32625;SDS011;19038;50.922;11.880;2022-10-30T23:58:19;10.67;;;9.17;;
